Time;durP1;ratioP1;P1;durP2;ratioP2;P2;SDS_P1;SDS_P2;PMS_P1;PMS_P2;Temp;Humidity;BMP_temperature;BMP_pressure;BME280_temperature;BME280_humidity;BME280_pressure;Samples;Min_cycle;Max_cycle;Signal;HPM_P1;HPM_P2
2023/01/03 00:02:00;;;;;;;4.10;3.70;;;6.90;99.90;;;;;;472193;250;27927;-75
2023/01/03 00:04:02;;;;;;;3.27;3.00;;;6.90;99.90;;;;;;472184;246;27531;-79
2023/01/03 00:06:03;;;;;;;4.80;4.00;;;7.00;99.90;;;;;;472195;250;28043;-80
2023/01/03 00:08:04;;;;;;;4.53;3.70;;;7.00;99.90;;;;;;472241;250;28420;-79
2023/01/03 00:10:05;;;;;;;4.27;3.17;;;7.00;99.90;;;;;;472207;250;28256;-80
2023/01/03 00:12:25;;;;;;;2.93;2.73;;;6.90;99.90;;;;;;472179;250;28451;-76
2023/01/03 00:14:26;;;;;;;5.43;3.80;;;7.10;99.90;;;;;;472175;250;28055;-76
2023/01/03 00:16:28;;;;;;;3.40;3.10;;;7.10;99.90;;;;;;472209;250;28143;-80
2023/01/03 00:18:29;;;;;;;4.00;3.57;;;7.10;99.90;;;;;;472120;250;28022;-80
2023/01/03 00:20:30;;;;;;;2.97;2.77;;;7.10;99.90;;;;;;472178;250;28009;-79
2023/01/03 00:22:31;;;;;;;6.37;3.90;;;7.20;99.90;;;;;;472186;250;27847;-80
2023/01/03 00:24:33;;;;;;;3.37;3.07;;;7.20;99.90;;;;;;472190;250;27968;-76
2023/01/03 00:26:34;;;;;;;3.70;3.23;;;7.20;99.90;;;;;;472180;252;28590;-76
2023/01/03 00:28:35;;;;;;;5.47;3.37;;;7.20;99.90;;;;;;472168;250;28181;-76
2023/01/03 00:30:36;;;;;;;6.70;4.67;;;7.20;99.90;;;;;;472150;250;28087;-80
2023/01/03 00:32:38;;;;;;;3.30;3.00;;;7.20;99.90;;;;;;472158;250;28799;-80
2023/01/03 00:34:39;;;;;;;3.30;3.00;;;7.30;99.90;;;;;;472193;250;28380;-79
2023/01/03 00:36:40;;;;;;;4.67;3.70;;;7.30;99.90;;;;;;472169;250;27924;-80
2023/01/03 00:38:41;;;;;;;3.27;2.97;;;7.30;99.90;;;;;;472194;250;27815;-79
2023/01/03 00:40:43;;;;;;;5.43;2.80;;;7.30;99.90;;;;;;472174;251;28126;-79
2023/01/03 00:45:04;;;;;;;4.20;3.20;;;7.30;99.90;;;;;;472171;246;27570;-76
2023/01/03 00:47:05;;;;;;;5.60;3.67;;;7.30;99.90;;;;;;472205;247;28020;-79
2023/01/03 00:49:06;;;;;;;4.33;3.20;;;7.30;99.90;;;;;;472167;250;27864;-80
2023/01/03 00:51:07;;;;;;;3.70;3.40;;;7.30;99.90;;;;;;472191;250;27884;-79
2023/01/03 00:53:09;;;;;;;3.53;3.23;;;7.30;99.90;;;;;;472215;250;27604;-78
2023/01/03 00:55:10;;;;;;;3.60;3.30;;;7.30;99.90;;;;;;472202;250;28035;-79
2023/01/03 00:57:11;;;;;;;3.67;3.37;;;7.40;99.90;;;;;;472177;251;28404;-79
2023/01/03 00:59:12;;;;;;;4.73;4.30;;;7.40;99.90;;;;;;472180;250;28418;-79
2023/01/03 01:01:14;;;;;;;4.40;4.00;;;7.40;99.90;;;;;;472187;250;28507;-78
2023/01/03 01:03:16;;;;;;;3.37;3.17;;;7.40;99.90;;;;;;472179;251;28373;-79
2023/01/03 01:05:16;;;;;;;3.30;3.10;;;7.40;99.90;;;;;;472155;252;28395;-79
2023/01/03 01:07:17;;;;;;;5.07;3.23;;;7.40;99.90;;;;;;472197;250;28108;-79
2023/01/03 01:09:19;;;;;;;6.13;3.40;;;7.40;99.90;;;;;;472197;250;27965;-80
2023/01/03 01:11:20;;;;;;;5.20;4.80;;;7.40;99.90;;;;;;472193;250;28006;-78
2023/01/03 01:13:21;;;;;;;3.77;3.33;;;7.40;99.90;;;;;;472232;250;27882;-80
2023/01/03 01:15:22;;;;;;;3.87;3.53;;;7.30;99.90;;;;;;472207;250;27944;-79
2023/01/03 01:17:26;;;;;;;5.20;4.70;;;7.30;99.90;;;;;;472218;251;28007;-79
2023/01/03 01:19:25;;;;;;;8.17;5.43;;;7.30;99.90;;;;;;472040;252;27590;-79
2023/01/03 01:21:26;;;;;;;4.13;3.73;;;7.30;99.90;;;;;;472154;246;27861;-79
2023/01/03 01:23:27;;;;;;;5.00;4.60;;;7.30;99.90;;;;;;472178;252;27920;-79
2023/01/03 01:25:29;;;;;;;6.40;3.90;;;7.30;99.90;;;;;;472140;247;28142;-79
2023/01/03 01:27:30;;;;;;;6.20;4.50;;;7.40;99.90;;;;;;472125;250;28009;-79
2023/01/03 01:29:31;;;;;;;5.33;3.77;;;7.40;99.90;;;;;;472133;250;28266;-79
2023/01/03 01:31:32;;;;;;;3.50;3.10;;;7.40;99.90;;;;;;472189;250;27986;-81
2023/01/03 01:33:34;;;;;;;4.00;3.47;;;7.40;99.90;;;;;;472188;250;28051;-79
2023/01/03 01:35:35;;;;;;;7.93;5.00;;;7.40;99.90;;;;;;472210;250;28535;-79
2023/01/03 01:37:36;;;;;;;4.23;3.90;;;7.40;99.90;;;;;;472174;250;28440;-79
2023/01/03 01:39:37;;;;;;;3.63;3.37;;;7.40;99.90;;;;;;472174;250;28707;-79
2023/01/03 01:46:17;;;;;;;4.20;3.83;;;7.40;99.90;;;;;;472163;247;28549;-77
2023/01/03 01:48:19;;;;;;;3.60;3.30;;;7.40;99.90;;;;;;472211;250;28294;-78
2023/01/03 01:50:20;;;;;;;4.23;3.93;;;7.40;99.90;;;;;;472222;250;28030;-76
2023/01/03 01:52:21;;;;;;;4.23;3.83;;;7.40;99.90;;;;;;472206;251;28060;-79
2023/01/03 01:54:24;;;;;;;4.03;3.70;;;7.40;99.90;;;;;;472180;250;27887;-78
2023/01/03 01:56:25;;;;;;;3.50;3.00;;;7.40;99.90;;;;;;472192;250;27580;-79
2023/01/03 01:58:26;;;;;;;3.70;3.40;;;7.40;99.90;;;;;;472229;250;27945;-80
2023/01/03 02:00:27;;;;;;;4.90;3.80;;;7.40;99.90;;;;;;472221;250;27907;-78
2023/01/03 02:02:29;;;;;;;4.37;3.87;;;7.40;99.90;;;;;;472192;250;28638;-80
2023/01/03 02:04:30;;;;;;;4.70;3.70;;;7.40;99.90;;;;;;472187;250;28558;-78
2023/01/03 02:06:31;;;;;;;4.57;3.97;;;7.40;99.90;;;;;;472160;250;29034;-79
2023/01/03 02:08:32;;;;;;;6.37;4.67;;;7.40;99.90;;;;;;472203;251;28472;-80
2023/01/03 02:10:33;;;;;;;5.60;4.97;;;7.40;99.90;;;;;;472209;250;28503;-80
2023/01/03 02:14:54;;;;;;;5.30;4.60;;;7.30;99.90;;;;;;472183;247;27813;-76
2023/01/03 02:16:55;;;;;;;6.10;4.90;;;7.30;99.90;;;;;;472194;250;27777;-75
2023/01/03 02:18:57;;;;;;;3.60;3.27;;;7.30;99.90;;;;;;472203;250;27694;-80
2023/01/03 02:20:58;;;;;;;4.50;4.10;;;7.30;99.90;;;;;;472234;250;27994;-80
2023/01/03 02:22:59;;;;;;;6.47;4.77;;;7.30;99.90;;;;;;472211;250;27992;-80
2023/01/03 02:25:00;;;;;;;5.63;3.50;;;7.30;99.90;;;;;;472188;250;28052;-79
2023/01/03 02:27:02;;;;;;;5.10;4.60;;;7.30;99.90;;;;;;472188;250;27943;-79
2023/01/03 02:29:03;;;;;;;4.87;4.37;;;7.40;99.90;;;;;;472233;250;27510;-79
2023/01/03 02:31:04;;;;;;;4.03;3.63;;;7.40;99.90;;;;;;472223;250;27948;-78
2023/01/03 02:33:05;;;;;;;3.77;3.47;;;7.30;99.90;;;;;;472173;250;27907;-79
2023/01/03 02:35:07;;;;;;;3.70;3.40;;;7.40;99.90;;;;;;472193;250;27613;-79
2023/01/03 02:37:08;;;;;;;4.60;3.27;;;7.30;99.90;;;;;;472237;250;28455;-79
2023/01/03 02:39:09;;;;;;;3.73;3.43;;;7.30;99.90;;;;;;472186;251;28415;-80
2023/01/03 02:41:10;;;;;;;4.83;3.60;;;7.40;99.90;;;;;;472210;250;28436;-80
2023/01/03 02:43:12;;;;;;;4.20;3.57;;;7.40;99.90;;;;;;472183;251;28516;-79
2023/01/03 02:45:13;;;;;;;4.27;3.97;;;7.30;99.90;;;;;;472180;250;28302;-79
2023/01/03 02:47:14;;;;;;;4.73;3.30;;;7.30;99.90;;;;;;472191;250;27884;-79
2023/01/03 02:49:15;;;;;;;3.00;2.80;;;7.30;99.90;;;;;;472201;250;27762;-79
2023/01/03 02:51:17;;;;;;;4.93;4.27;;;7.40;99.90;;;;;;472249;250;28043;-80
2023/01/03 02:53:18;;;;;;;5.20;3.97;;;7.30;99.90;;;;;;472236;250;27974;-79
2023/01/03 02:55:19;;;;;;;5.47;3.87;;;7.30;99.90;;;;;;472195;250;28076;-80
2023/01/03 02:57:20;;;;;;;6.27;3.87;;;7.30;99.90;;;;;;472184;250;27546;-80
2023/01/03 02:59:22;;;;;;;4.30;3.77;;;7.30;99.90;;;;;;472185;250;28162;-80
2023/01/03 03:01:23;;;;;;;4.00;3.70;;;7.30;99.90;;;;;;472210;250;28315;-80
2023/01/03 03:03:24;;;;;;;5.77;3.67;;;7.30;99.90;;;;;;472234;251;27923;-79
2023/01/03 03:05:25;;;;;;;3.67;3.47;;;7.30;99.90;;;;;;472181;252;27949;-79
2023/01/03 03:07:26;;;;;;;4.47;4.07;;;7.30;99.90;;;;;;472189;247;28100;-80
2023/01/03 03:09:28;;;;;;;3.97;3.67;;;7.20;99.90;;;;;;472177;250;28059;-79
2023/01/03 03:13:49;;;;;;;3.70;3.20;;;7.30;99.90;;;;;;472202;252;27878;-77
2023/01/03 03:15:50;;;;;;;6.93;3.50;;;7.30;99.90;;;;;;472208;250;27995;-78
2023/01/03 03:17:51;;;;;;;3.50;3.20;;;7.30;99.90;;;;;;472232;250;28014;-80
2023/01/03 03:26:48;;;;;;;4.00;3.50;;;7.20;99.90;;;;;;464085;252;28387;-78
2023/01/03 03:28:49;;;;;;;3.40;2.83;;;7.20;99.90;;;;;;472240;252;27916;-77
2023/01/03 03:30:50;;;;;;;9.43;3.50;;;7.20;99.90;;;;;;472220;250;28043;-77
2023/01/03 03:32:51;;;;;;;5.40;3.17;;;7.20;99.90;;;;;;472170;250;27893;-80
2023/01/03 03:34:53;;;;;;;3.27;2.83;;;7.20;99.90;;;;;;472194;250;28564;-79
2023/01/03 03:36:54;;;;;;;6.20;3.90;;;7.10;99.90;;;;;;472268;250;28450;-80
2023/01/03 03:38:55;;;;;;;4.30;3.90;;;7.20;99.90;;;;;;472171;250;28132;-77
2023/01/03 03:45:36;;;;;;;3.67;2.87;;;7.20;99.90;;;;;;472203;252;28101;-78
2023/01/03 03:47:38;;;;;;;3.50;3.23;;;7.20;99.90;;;;;;472202;250;28259;-77
2023/01/03 03:49:39;;;;;;;5.57;4.33;;;7.20;99.90;;;;;;472218;250;28301;-74
2023/01/03 03:51:40;;;;;;;2.87;2.67;;;7.20;99.90;;;;;;472240;250;28359;-79
2023/01/03 03:53:41;;;;;;;5.30;3.70;;;7.20;99.90;;;;;;472205;250;28150;-79
2023/01/03 03:55:43;;;;;;;3.67;3.37;;;7.20;99.90;;;;;;472183;250;28074;-77
2023/01/03 03:57:44;;;;;;;4.40;3.30;;;7.20;99.90;;;;;;472184;250;28024;-79
2023/01/03 03:59:45;;;;;;;7.10;3.80;;;7.20;99.90;;;;;;472229;250;28089;-79
2023/01/03 04:01:46;;;;;;;7.20;3.30;;;7.20;99.90;;;;;;472260;250;28034;-79
2023/01/03 04:03:48;;;;;;;4.10;3.73;;;7.20;99.90;;;;;;472222;252;28018;-79
2023/01/03 04:05:49;;;;;;;3.90;3.60;;;7.30;99.90;;;;;;472208;250;27993;-79
2023/01/03 04:07:50;;;;;;;4.47;4.07;;;7.20;99.90;;;;;;472216;250;28432;-78
2023/01/03 04:09:51;;;;;;;3.90;3.60;;;7.30;99.90;;;;;;472189;250;28093;-79
2023/01/03 04:11:53;;;;;;;5.20;4.40;;;7.20;99.90;;;;;;472233;251;28157;-80
2023/01/03 04:13:54;;;;;;;4.07;3.67;;;7.30;99.90;;;;;;472223;250;27850;-80
2023/01/03 04:15:55;;;;;;;6.40;4.00;;;7.30;99.90;;;;;;472237;251;27944;-79
2023/01/03 04:17:56;;;;;;;7.73;4.13;;;7.30;99.90;;;;;;472210;250;27909;-80
2023/01/03 04:19:58;;;;;;;9.60;4.20;;;7.30;99.90;;;;;;472220;250;27653;-79
2023/01/03 04:21:59;;;;;;;7.60;3.93;;;7.30;99.90;;;;;;472233;250;27822;-80
2023/01/03 04:24:00;;;;;;;4.43;4.03;;;7.20;99.90;;;;;;472198;252;28431;-79
2023/01/03 04:26:01;;;;;;;4.33;3.40;;;7.20;99.90;;;;;;472214;247;28444;-79
2023/01/03 04:28:03;;;;;;;4.50;3.60;;;7.20;99.90;;;;;;472213;250;28549;-80
2023/01/03 04:30:04;;;;;;;4.77;3.50;;;7.30;99.90;;;;;;472207;250;28561;-80
2023/01/03 04:32:05;;;;;;;5.60;4.03;;;7.30;99.90;;;;;;472209;251;28183;-79
2023/01/03 04:34:06;;;;;;;4.03;3.73;;;7.20;99.90;;;;;;472235;250;28322;-79
2023/01/03 04:36:08;;;;;;;5.33;3.90;;;7.20;99.90;;;;;;472204;250;28089;-79
2023/01/03 04:38:09;;;;;;;5.03;4.07;;;7.20;99.90;;;;;;472198;250;27652;-79
2023/01/03 04:40:10;;;;;;;11.50;4.60;;;7.20;99.90;;;;;;472215;250;27964;-80
2023/01/03 04:44:31;;;;;;;5.20;4.23;;;7.30;99.90;;;;;;472223;252;27689;-74
2023/01/03 04:46:32;;;;;;;5.40;4.20;;;7.20;99.90;;;;;;472222;250;27933;-79
2023/01/03 04:48:34;;;;;;;4.13;3.57;;;7.20;99.90;;;;;;472266;252;27970;-81
2023/01/03 04:50:35;;;;;;;4.03;3.73;;;7.20;99.90;;;;;;472253;250;27918;-79
2023/01/03 04:52:36;;;;;;;4.30;3.90;;;7.20;99.90;;;;;;472204;250;27809;-81
2023/01/03 04:54:37;;;;;;;4.33;3.93;;;7.20;99.90;;;;;;472198;251;27795;-80
2023/01/03 04:56:39;;;;;;;4.20;3.80;;;7.20;99.90;;;;;;472207;250;28080;-79
2023/01/03 04:58:40;;;;;;;4.10;3.80;;;7.20;99.90;;;;;;472261;250;28419;-80
2023/01/03 05:00:41;;;;;;;4.03;3.63;;;7.20;99.90;;;;;;472275;250;27927;-80
2023/01/03 05:02:42;;;;;;;5.33;3.90;;;7.20;99.90;;;;;;472224;250;27938;-80
2023/01/03 05:04:44;;;;;;;3.70;3.37;;;7.20;99.90;;;;;;472196;250;27901;-80
2023/01/03 05:06:45;;;;;;;3.80;3.50;;;7.20;99.90;;;;;;472166;250;27915;-80
2023/01/03 05:08:46;;;;;;;4.87;3.90;;;7.20;99.90;;;;;;472258;250;27961;-79
2023/01/03 05:10:47;;;;;;;7.73;4.00;;;7.20;99.90;;;;;;472236;252;27885;-80
2023/01/03 05:12:58;;;;;;;7.10;4.80;;;7.20;99.90;;;;;;472196;250;28496;-79
2023/01/03 05:14:50;;;;;;;7.53;5.30;;;7.20;99.90;;;;;;471507;252;28252;-79
2023/01/03 05:16:51;;;;;;;6.90;3.93;;;7.20;99.90;;;;;;472224;250;28421;-79
2023/01/03 05:18:53;;;;;;;4.40;3.80;;;7.20;99.90;;;;;;472241;246;28252;-79
2023/01/03 05:25:51;;;;;;;5.63;3.90;;;7.20;99.90;;;;;;472171;252;28173;-79
2023/01/03 05:27:52;;;;;;;7.03;3.70;;;7.20;99.90;;;;;;472164;250;27910;-78
2023/01/03 05:29:53;;;;;;;7.10;4.03;;;7.20;99.90;;;;;;472199;251;27844;-76
2023/01/03 05:31:54;;;;;;;4.87;3.73;;;7.20;99.90;;;;;;472203;250;27965;-79
2023/01/03 05:33:56;;;;;;;4.63;4.23;;;7.20;99.90;;;;;;472233;247;27614;-80
2023/01/03 05:35:57;;;;;;;4.10;3.77;;;7.20;99.90;;;;;;472220;250;27798;-80
2023/01/03 05:37:58;;;;;;;5.77;4.40;;;7.20;99.90;;;;;;472210;250;27922;-79
2023/01/03 05:39:59;;;;;;;4.60;4.20;;;7.10;99.90;;;;;;472205;250;27892;-79
2023/01/03 05:42:01;;;;;;;7.40;5.37;;;7.20;99.90;;;;;;472190;250;27566;-79
2023/01/03 05:44:02;;;;;;;6.53;4.43;;;7.10;99.90;;;;;;472214;250;27942;-79
2023/01/03 05:46:03;;;;;;;4.37;3.90;;;7.20;99.90;;;;;;472226;250;28276;-79
2023/01/03 05:48:04;;;;;;;5.57;4.10;;;7.20;99.90;;;;;;472203;250;28369;-80
2023/01/03 05:50:06;;;;;;;7.43;4.40;;;7.20;99.90;;;;;;472195;250;28515;-79
2023/01/03 05:52:07;;;;;;;4.90;4.40;;;7.10;99.90;;;;;;472190;250;28974;-80
2023/01/03 05:54:08;;;;;;;4.53;4.10;;;7.10;99.90;;;;;;472236;250;28545;-79
2023/01/03 05:56:09;;;;;;;4.77;4.37;;;7.20;99.90;;;;;;472225;247;28555;-79
2023/01/03 05:58:11;;;;;;;8.60;4.90;;;7.20;99.90;;;;;;472174;251;27917;-77
2023/01/03 06:00:12;;;;;;;5.37;4.10;;;7.20;99.90;;;;;;472210;250;28034;-79
2023/01/03 06:02:13;;;;;;;4.60;4.20;;;7.10;99.90;;;;;;472223;250;27785;-79
2023/01/03 06:04:14;;;;;;;6.50;5.30;;;7.20;99.90;;;;;;472194;250;27799;-79
2023/01/03 06:06:16;;;;;;;6.30;5.70;;;7.20;99.90;;;;;;472209;250;28032;-80
2023/01/03 06:08:17;;;;;;;6.70;5.00;;;7.10;99.90;;;;;;472200;250;27983;-79
2023/01/03 06:10:18;;;;;;;7.27;6.00;;;7.10;99.90;;;;;;472203;250;27965;-80
2023/01/03 06:12:19;;;;;;;6.57;5.83;;;7.10;99.90;;;;;;472199;251;28004;-80
2023/01/03 06:14:21;;;;;;;8.88;5.70;;;7.00;99.90;;;;;;472204;250;28030;-79
2023/01/03 06:18:41;;;;;;;7.70;6.47;;;6.90;99.90;;;;;;472183;252;28581;-75
2023/01/03 06:20:43;;;;;;;6.70;5.80;;;6.90;99.90;;;;;;472207;250;28356;-76
2023/01/03 06:22:44;;;;;;;8.97;5.47;;;6.90;99.90;;;;;;472241;250;28582;-81
2023/01/03 06:24:45;;;;;;;6.20;5.37;;;6.90;99.90;;;;;;472248;250;27539;-78
2023/01/03 06:26:46;;;;;;;10.70;6.23;;;6.90;99.90;;;;;;472258;250;27938;-79
2023/01/03 06:28:48;;;;;;;6.70;5.50;;;6.90;99.90;;;;;;472245;250;28290;-79
2023/01/03 06:30:49;;;;;;;7.07;5.43;;;6.90;99.90;;;;;;472239;251;28001;-78
2023/01/03 06:32:50;;;;;;;6.20;5.07;;;6.90;99.90;;;;;;472255;250;27793;-81
2023/01/03 06:34:51;;;;;;;5.57;5.00;;;6.90;99.90;;;;;;472243;251;28118;-79
2023/01/03 06:36:53;;;;;;;5.77;4.77;;;6.90;99.90;;;;;;472267;250;28039;-79
2023/01/03 06:38:54;;;;;;;8.73;6.17;;;6.90;99.90;;;;;;472260;250;28135;-79
2023/01/03 06:40:55;;;;;;;6.03;5.20;;;6.90;99.90;;;;;;472232;250;27808;-79
2023/01/03 06:42:56;;;;;;;11.67;8.50;;;7.00;99.90;;;;;;472259;250;28399;-79
2023/01/03 06:54:16;;;;;;;8.07;7.27;;;6.90;99.90;;;;;;472184;247;27989;-77
2023/01/03 06:56:17;;;;;;;7.07;6.30;;;6.90;99.90;;;;;;472228;252;28509;-78
2023/01/03 06:58:18;;;;;;;7.57;6.77;;;6.90;99.90;;;;;;472223;250;28478;-75
2023/01/03 07:00:19;;;;;;;8.50;6.63;;;6.90;99.90;;;;;;472226;250;28381;-74
2023/01/03 07:02:21;;;;;;;7.00;5.87;;;6.90;99.90;;;;;;472226;250;28440;-80
2023/01/03 07:04:22;;;;;;;8.40;5.90;;;6.90;99.90;;;;;;472222;247;28053;-79
2023/01/03 07:06:23;;;;;;;6.80;6.10;;;6.90;99.90;;;;;;472251;250;27506;-80
2023/01/03 07:08:24;;;;;;;8.73;6.90;;;6.90;99.90;;;;;;472237;250;28608;-79
2023/01/03 07:10:26;;;;;;;8.93;7.10;;;6.90;99.90;;;;;;472231;250;28051;-80
2023/01/03 07:14:47;;;;;;;7.77;6.83;;;6.80;99.90;;;;;;472212;252;28584;-74
2023/01/03 07:16:48;;;;;;;7.20;6.50;;;6.80;99.90;;;;;;472218;247;27587;-79
2023/01/03 07:18:49;;;;;;;9.27;7.27;;;6.80;99.90;;;;;;472182;250;27912;-77
2023/01/03 07:20:50;;;;;;;9.63;7.50;;;6.80;99.90;;;;;;472171;250;28040;-78
2023/01/03 07:22:52;;;;;;;9.47;7.43;;;6.80;99.90;;;;;;472254;250;28070;-79
2023/01/03 07:24:53;;;;;;;7.63;6.23;;;6.80;99.90;;;;;;472237;250;28014;-75
2023/01/03 07:26:54;;;;;;;11.53;6.70;;;6.70;99.90;;;;;;472212;251;27980;-78
2023/01/03 07:28:55;;;;;;;7.63;5.97;;;6.70;99.90;;;;;;472209;251;28133;-79
2023/01/03 07:30:57;;;;;;;9.23;6.20;;;6.70;99.90;;;;;;472193;250;28092;-80
2023/01/03 07:32:58;;;;;;;8.30;6.50;;;6.80;99.90;;;;;;472254;250;27831;-80
2023/01/03 07:34:59;;;;;;;7.87;6.03;;;6.70;99.90;;;;;;472229;250;27675;-80
2023/01/03 07:37:00;;;;;;;9.10;5.67;;;6.70;99.90;;;;;;472224;250;27995;-75
2023/01/03 07:39:02;;;;;;;8.93;5.77;;;6.60;99.90;;;;;;472175;250;27852;-74
2023/01/03 07:41:03;;;;;;;7.67;6.33;;;6.70;99.90;;;;;;472227;250;27470;-75
2023/01/03 07:45:24;;;;;;;7.93;5.07;;;6.70;99.90;;;;;;472168;252;27914;-75
2023/01/03 07:47:25;;;;;;;10.60;5.53;;;6.70;99.90;;;;;;472221;250;27782;-75
2023/01/03 07:49:26;;;;;;;6.03;5.23;;;6.70;99.90;;;;;;472221;250;27852;-77
2023/01/03 07:51:28;;;;;;;9.90;5.97;;;6.80;99.90;;;;;;472231;250;27919;-77
2023/01/03 07:53:29;;;;;;;10.53;5.80;;;6.80;99.90;;;;;;472222;251;27970;-76
2023/01/03 07:55:30;;;;;;;8.80;4.93;;;6.70;99.90;;;;;;472184;250;27907;-79
2023/01/03 07:57:31;;;;;;;7.07;6.00;;;6.80;99.90;;;;;;472239;250;28585;-79
2023/01/03 07:59:33;;;;;;;12.13;6.53;;;6.80;99.90;;;;;;472217;250;28112;-79
2023/01/03 08:01:34;;;;;;;6.20;5.47;;;6.80;99.90;;;;;;472193;250;29304;-79
2023/01/03 08:03:35;;;;;;;6.10;5.50;;;6.80;99.90;;;;;;472198;250;27987;-77
2023/01/03 08:05:36;;;;;;;5.90;5.20;;;6.80;99.90;;;;;;472178;250;28660;-78
2023/01/03 08:07:38;;;;;;;9.70;6.83;;;6.90;99.90;;;;;;472235;251;27542;-78
2023/01/03 08:14:18;;;;;;;9.07;6.47;;;6.90;99.90;;;;;;472157;246;28169;-76
2023/01/03 08:16:19;;;;;;;6.00;5.40;;;6.80;99.90;;;;;;472209;251;28435;-78
2023/01/03 08:18:21;;;;;;;9.07;7.50;;;6.80;99.90;;;;;;472224;250;27944;-79
2023/01/03 08:20:22;;;;;;;9.13;6.40;;;6.80;99.90;;;;;;472196;250;28458;-79
2023/01/03 08:22:23;;;;;;;6.90;5.20;;;6.90;99.90;;;;;;472222;250;28589;-79
2023/01/03 08:24:24;;;;;;;9.77;5.53;;;6.90;99.90;;;;;;472245;251;28045;-79
2023/01/03 08:26:26;;;;;;;8.57;5.60;;;6.90;99.90;;;;;;472242;250;28058;-78
2023/01/03 08:28:27;;;;;;;5.90;4.90;;;6.90;99.90;;;;;;472223;250;27913;-80
2023/01/03 08:30:28;;;;;;;6.50;4.87;;;6.90;99.90;;;;;;472205;250;27985;-75
2023/01/03 08:32:29;;;;;;;7.43;5.30;;;6.90;99.90;;;;;;472200;251;27438;-80
2023/01/03 08:34:30;;;;;;;5.90;4.63;;;6.90;99.90;;;;;;472209;251;27946;-78
2023/01/03 08:36:32;;;;;;;6.87;5.07;;;6.90;99.90;;;;;;472231;250;28226;-79
2023/01/03 08:38:33;;;;;;;5.63;4.60;;;6.90;99.90;;;;;;472218;250;27673;-80
2023/01/03 08:40:34;;;;;;;7.20;4.40;;;6.90;99.90;;;;;;472198;250;28195;-79
2023/01/03 08:42:35;;;;;;;9.30;6.10;;;6.90;99.90;;;;;;472237;251;27912;-80
2023/01/03 08:44:37;;;;;;;7.80;6.57;;;7.00;99.90;;;;;;472225;250;27837;-80
2023/01/03 08:46:38;;;;;;;10.40;7.70;;;7.00;99.90;;;;;;472212;250;28065;-80
2023/01/03 08:48:39;;;;;;;7.00;6.00;;;7.00;99.90;;;;;;472255;250;28035;-79
2023/01/03 08:50:40;;;;;;;7.17;6.20;;;7.00;99.90;;;;;;472227;250;28468;-79
2023/01/03 08:52:42;;;;;;;7.43;6.13;;;7.10;99.90;;;;;;472212;250;28323;-80
2023/01/03 08:54:43;;;;;;;7.97;6.10;;;7.20;99.90;;;;;;472210;250;28390;-80
2023/01/03 08:56:44;;;;;;;7.80;5.33;;;7.20;99.90;;;;;;472228;250;28321;-80
2023/01/03 08:58:45;;;;;;;7.30;5.70;;;7.20;99.90;;;;;;472236;250;28394;-79
2023/01/03 09:00:47;;;;;;;8.63;5.37;;;7.30;99.90;;;;;;472207;250;28085;-80
2023/01/03 09:02:48;;;;;;;5.60;5.10;;;7.30;99.90;;;;;;472195;251;27977;-79
2023/01/03 09:04:49;;;;;;;6.93;5.53;;;7.40;99.90;;;;;;472210;250;27935;-79
2023/01/03 09:06:50;;;;;;;9.13;6.37;;;7.50;99.90;;;;;;472252;250;27593;-80
2023/01/03 09:08:52;;;;;;;5.80;5.20;;;7.50;99.90;;;;;;472239;250;27957;-80
2023/01/03 09:10:53;;;;;;;11.93;6.60;;;7.50;99.90;;;;;;472231;250;27820;-81
2023/01/03 09:12:54;;;;;;;5.33;4.83;;;7.50;99.90;;;;;;472187;247;28108;-80
2023/01/03 09:14:55;;;;;;;6.03;5.20;;;7.50;99.90;;;;;;472185;250;28043;-80
2023/01/03 09:16:57;;;;;;;7.73;5.07;;;7.50;99.90;;;;;;472214;246;28300;-79
2023/01/03 09:18:58;;;;;;;5.63;5.00;;;7.50;99.90;;;;;;472217;251;28006;-80
2023/01/03 09:20:59;;;;;;;9.50;6.07;;;7.50;99.90;;;;;;472114;252;27958;-80
2023/01/03 09:23:00;;;;;;;11.43;5.60;;;7.50;99.90;;;;;;472198;251;27805;-80
2023/01/03 09:25:02;;;;;;;8.47;5.20;;;7.50;99.90;;;;;;472173;250;28365;-79
2023/01/03 09:27:03;;;;;;;9.10;5.07;;;7.50;99.90;;;;;;472198;250;28491;-80
2023/01/03 09:29:04;;;;;;;6.40;5.53;;;7.50;99.90;;;;;;468284;250;36741;-80
2023/01/03 09:31:05;;;;;;;11.97;5.77;;;7.50;99.90;;;;;;472221;250;27961;-80
2023/01/03 09:33:09;;;;;;;8.43;5.80;;;7.50;99.90;;;;;;472205;250;28512;-80
2023/01/03 09:35:08;;;;;;;12.00;6.50;;;7.50;99.90;;;;;;472064;252;28039;-79
2023/01/03 09:37:09;;;;;;;9.10;5.97;;;7.50;99.90;;;;;;472207;250;28002;-79
2023/01/03 09:39:11;;;;;;;8.17;6.40;;;7.50;99.90;;;;;;472202;252;27966;-80
2023/01/03 09:41:12;;;;;;;10.27;6.60;;;7.50;99.90;;;;;;472190;250;27982;-80
2023/01/03 09:43:13;;;;;;;7.67;6.03;;;7.70;99.90;;;;;;472202;250;28052;-79
2023/01/03 09:45:14;;;;;;;8.07;6.40;;;7.70;99.90;;;;;;472157;250;27949;-80
2023/01/03 09:47:15;;;;;;;7.80;6.07;;;7.70;99.90;;;;;;472191;250;27968;-80
2023/01/03 09:49:17;;;;;;;7.87;6.63;;;7.60;99.90;;;;;;472191;252;27447;-79
2023/01/03 10:05:16;;;;;;;8.20;5.40;;;7.70;99.90;;;;;;472189;252;27915;-76
2023/01/03 10:07:17;;;;;;;6.60;4.53;;;7.70;99.90;;;;;;472182;251;28127;-77
2023/01/03 10:09:18;;;;;;;8.33;5.00;;;7.70;99.90;;;;;;472229;250;27886;-75
2023/01/03 10:11:19;;;;;;;6.37;4.50;;;7.80;99.90;;;;;;472260;251;27926;-78
2023/01/03 10:13:20;;;;;;;7.03;4.37;;;7.80;99.90;;;;;;472270;250;28066;-79
2023/01/03 10:15:22;;;;;;;10.23;4.63;;;7.80;99.90;;;;;;472234;250;27895;-79
2023/01/03 10:17:23;;;;;;;7.03;4.83;;;7.90;99.90;;;;;;472263;250;28018;-80
2023/01/03 10:19:24;;;;;;;5.40;4.30;;;7.90;99.90;;;;;;472241;250;28390;-80
2023/01/03 10:21:25;;;;;;;10.87;6.27;;;8.10;99.90;;;;;;472262;250;28280;-80
2023/01/03 10:23:27;;;;;;;7.43;4.10;;;8.20;99.90;;;;;;472255;250;28445;-80
2023/01/03 10:25:28;;;;;;;8.10;4.37;;;8.20;99.90;;;;;;472205;250;28382;-80
2023/01/03 10:27:29;;;;;;;8.00;4.43;;;8.30;99.90;;;;;;472235;251;28523;-80
2023/01/03 10:29:31;;;;;;;3.70;3.40;;;8.40;99.90;;;;;;472223;250;27899;-80
2023/01/03 10:31:32;;;;;;;5.17;4.10;;;8.40;99.90;;;;;;472253;250;27770;-80
2023/01/03 10:33:33;;;;;;;3.90;3.50;;;8.50;99.90;;;;;;472255;250;27957;-80
2023/01/03 10:35:34;;;;;;;4.70;3.90;;;8.40;99.90;;;;;;472214;250;27874;-80
2023/01/03 10:37:36;;;;;;;5.70;4.10;;;8.30;99.90;;;;;;472136;247;27949;-79
2023/01/03 10:39:37;;;;;;;4.67;4.27;;;8.30;99.90;;;;;;472199;247;27963;-80
2023/01/03 10:41:38;;;;;;;5.30;4.37;;;8.20;99.90;;;;;;472233;246;27836;-81
2023/01/03 10:43:39;;;;;;;5.07;3.97;;;8.20;99.90;;;;;;472238;250;28047;-80
2023/01/03 10:45:41;;;;;;;4.50;3.30;;;8.30;99.90;;;;;;472214;250;27930;-80
2023/01/03 10:47:42;;;;;;;19.47;5.30;;;8.40;99.90;;;;;;472199;250;27700;-79
2023/01/03 10:49:43;;;;;;;6.50;4.40;;;8.40;99.90;;;;;;472214;251;27864;-80
2023/01/03 10:51:44;;;;;;;4.07;3.63;;;8.50;99.90;;;;;;472215;250;28067;-80
2023/01/03 10:53:46;;;;;;;5.00;3.47;;;8.40;99.90;;;;;;472241;250;27953;-81
2023/01/03 10:55:47;;;;;;;4.17;3.77;;;8.40;99.90;;;;;;472216;250;28445;-80
2023/01/03 10:57:48;;;;;;;4.53;3.60;;;8.40;99.90;;;;;;472207;250;28312;-79
2023/01/03 10:59:49;;;;;;;5.10;3.20;;;8.40;99.90;;;;;;472197;250;28552;-79
2023/01/03 11:01:51;;;;;;;5.20;3.60;;;8.30;99.90;;;;;;472187;250;28176;-80
2023/01/03 11:03:52;;;;;;;6.27;2.93;;;8.50;99.90;;;;;;472231;250;28475;-80
2023/01/03 11:05:53;;;;;;;6.93;3.33;;;8.50;99.90;;;;;;472217;250;28095;-79
2023/01/03 11:07:54;;;;;;;5.60;3.30;;;8.50;99.90;;;;;;472243;250;28028;-80
2023/01/03 11:09:56;;;;;;;4.27;3.47;;;8.40;99.90;;;;;;472175;250;28008;-80
2023/01/03 11:11:57;;;;;;;6.70;3.20;;;8.50;99.90;;;;;;472221;250;27974;-80
2023/01/03 11:13:58;;;;;;;3.20;2.90;;;8.60;99.90;;;;;;472222;250;27949;-80
2023/01/03 11:15:59;;;;;;;3.30;3.00;;;8.70;99.90;;;;;;472227;250;27914;-80
2023/01/03 11:18:01;;;;;;;5.77;3.00;;;8.80;99.90;;;;;;472231;251;27906;-80
2023/01/03 11:20:02;;;;;;;3.10;2.80;;;8.80;99.90;;;;;;472215;250;27919;-80
2023/01/03 11:22:03;;;;;;;3.30;3.00;;;8.80;99.90;;;;;;472220;250;27915;-79
2023/01/03 11:24:04;;;;;;;7.40;3.07;;;8.90;99.90;;;;;;472223;251;28296;-81
2023/01/03 11:26:06;;;;;;;4.00;2.93;;;9.00;99.90;;;;;;472238;250;27547;-80
2023/01/03 11:28:07;;;;;;;3.97;2.83;;;8.90;99.90;;;;;;472231;251;27987;-79
2023/01/03 11:30:08;;;;;;;4.03;2.47;;;8.80;99.90;;;;;;472225;251;27954;-79
2023/01/03 11:32:09;;;;;;;2.70;2.47;;;8.80;99.90;;;;;;472240;250;28030;-79
2023/01/03 11:34:11;;;;;;;5.87;2.63;;;8.90;99.90;;;;;;472244;250;28523;-79
2023/01/03 11:36:12;;;;;;;4.57;3.30;;;9.00;99.90;;;;;;472236;250;28383;-79
2023/01/03 11:38:13;;;;;;;5.40;2.60;;;9.00;99.90;;;;;;472217;250;28292;-79
2023/01/03 11:40:14;;;;;;;2.83;2.63;;;9.10;99.90;;;;;;472212;251;28374;-79
2023/01/03 11:42:16;;;;;;;3.60;2.70;;;9.00;99.90;;;;;;472209;250;28511;-80
2023/01/03 11:44:17;;;;;;;2.17;2.07;;;9.10;99.90;;;;;;472240;250;27921;-81